Monroe, Nebraska
Current Conditions -  °F | °C
As of 6:55 AM on Thursday 27 Nov 2014 (Local Time) from KOLU Reporting Station
Overcast Overcast  
Wind Chill:   Ceiling: 4200
Heat Index: 18°   Visibility: 10mi
Dew Point:   Wind: 7mph
Humidity: 63%   Direction: 70°ENE
Pressure: 30.49"   Gusts: NA
Location:  41.47°N, 97.6°W
Report Text: KOLU 271255Z AUTO 07006KT 10SM BKN042 OVC070 M08/M14 A3049 RMK AO1
Loading
Personal Weather Stations






























Interactive Weather Map New forecast layout! Learn more

10-Day Weather Forecast

Advertisements
Track Severe Weather on mobile